Saturday, December 20, 2014
07:59 UTC
  |  Log In   |  Register Free
Airport Search:

Okmulgee Regional Airport
(KOKM)

Okmulgee Regional Airport Diagram
No Airport Diagram Available

FAA data valid effective November 13, 2014 - January 08, 2015 (unless otherwise noted).

 
 
 
 
 
 
 
 
 
 
 
 
 
 

Current Aviation Weather for Okmulgee Regional Airport (KOKM)

The most recent METAR observation for KOKM was updated at: 2117
METAR Summary (Translated METAR)
KOKM
182055Z AUTO 31004KT 7SM OVC004 05/04 A3015 RMK AO2 T00490042
KF10
081459Z 31001KT 16/16 RMK PK WND 29004KT PCPN 1/3/6/12/24H 0.00 0.01 0.02 0.02 0.04
(16 nm SW from KOKM)
KRVS
182053Z 01003KT 10SM OVC010 06/03 A3016 RMK AO2 SLP220 T00560033 56007
(22.4 nm NW from KOKM)
TAF Summary (Translated TAF)
KRVS
(22.4 nm NW from KOKM)
200537Z 2006/2106 00000KT P6SM SCT015 BKN035 FM200800 00000KT P6SM SCT015 BKN025 FM201200 00000KT P6SM OVC018 FM201600 18006KT P6SM BKN018 FM202000 17006KT P6SM BKN025
  Airport Weather Conditions for KOKM

 Current Weather at OKM
39° F
Overcast
North winds at 0.0 mph
OKM NOAA Radar

Pressure: 30.22 in
Humidity: 92%
Wind: Calm
Dew Point: 37.0°F
Visibility: 7.00 mi


Airport Weather Forecast for KOKM

Translated METAR and TAF for KOKM
Translated METAR for KOKM (0800 UTC 20 December 2014)
found at http://aviationweather.gov/adds/metars/
 
METAR text: KOKM 200735Z AUTO 00000KT 7SM OVC029 04/03 A3021 RMK AO2 T00400030
Conditions at: KOKM (OKMULGEE , OK, US) observed 0735 UTC 20 December 2014
Temperature: 4.0°C (39°F)
Dewpoint: 3.0°C (37°F) [RH = 93%]
Pressure (altimeter): 30.21 inches Hg (1023.1 mb)
Winds: calm
Visibility: 7 miles (11 km)
Ceiling: 2900 feet AGL
Clouds: overcast cloud deck at 2900 feet AGL
Weather: automated observation with no human augmentation;
there may or may not be significant weather present at this time
Translated TAF for KOKM

There is no translated TAF available for this airport

Find All Airport Services Find A Hotel Find A Rental Car Find A Golf Course Find A Restaurant $100 Hamburger



FBO's on the Field
FBO Company Facility Photos Services Transportation Aviation Fuel Prices: Prices include tax
Catering Weather Repair Courtesy Rental Type 100LL JetA JetA+ MOGAS 8087
 
Okmulgee Regional Airport

This FBO has not yet been rated
FS:Phillips 66
Last Updated: Dec-02
Login to update fuel prices
SS:
Contact Okmulgee Regional AirportMore FBO Information
 
Add another FBO Facility Photos Catering Weather Repair Courtesy Rental Type 100LL JetA JetA+ MOGAS 8087
Services Transportation Aviation Fuel Prices: Prices include tax


model-print
model-print
model-print
model-print